Linkwood, Maryland
Current Conditions -  °F | °C
As of 1:07 PM on Tuesday 21 Oct 2014 (Local Time) from KCGE Reporting Station
Clear Clear  
Wind Chill: 70°   Ceiling: Unl
Heat Index: 70°   Visibility: 10mi
Dew Point: 48°   Wind: 5mph
Humidity: 46%   Direction: 290°WNW
Pressure: 29.83"   Gusts: NA
Location:  38.54°N, 75.95°W
Report Text: KCGE 211707Z AUTO 29004KT 10SM CLR 21/09 A2983 RMK AO1
Loading
Personal Weather Stations






























Interactive Weather Map
Tropical Storm Tracking
New forecast layout! Learn more

10-Day Weather Forecast

Advertisements
Track Severe Weather on mobile